createdAt,value
2022-12-23T00:01:42.207Z,18.37
2022-12-23T00:04:10.796Z,16.73
2022-12-23T00:06:39.211Z,20.30
2022-12-23T00:09:07.792Z,20.60
2022-12-23T00:11:57.469Z,20.83
2022-12-23T00:14:43.470Z,18.93
2022-12-23T00:17:28.341Z,20.43
2022-12-23T00:19:57.102Z,22.43
2022-12-23T00:22:46.165Z,22.20
2022-12-23T00:25:15.097Z,21.17
2022-12-23T00:28:01.383Z,18.63
2022-12-23T00:30:30.247Z,18.60
2022-12-23T00:32:58.702Z,19.27
2022-12-23T00:35:27.088Z,19.20
2022-12-23T00:37:55.432Z,22.47
2022-12-23T00:40:41.312Z,21.23
2022-12-23T00:43:11.098Z,20.13
2022-12-23T00:45:39.564Z,24.53
2022-12-23T00:48:25.586Z,20.87
2022-12-23T00:50:54.511Z,22.47
2022-12-23T00:53:23.304Z,24.03
2022-12-23T00:55:52.087Z,21.60
2022-12-23T00:58:23.101Z,24.70
2022-12-23T01:01:08.842Z,22.53
2022-12-23T01:03:54.902Z,22.17
2022-12-23T01:06:23.390Z,26.90
2022-12-23T01:08:51.750Z,26.53
2022-12-23T01:11:20.626Z,30.03
2022-12-23T01:13:50.542Z,30.90
2022-12-23T01:16:19.009Z,26.40
2022-12-23T01:18:47.525Z,25.27
2022-12-23T01:21:15.925Z,24.80
2022-12-23T01:23:44.391Z,27.87
2022-12-23T01:26:13.465Z,28.60
2022-12-23T01:28:41.831Z,30.80
2022-12-23T01:31:12.836Z,24.17
2022-12-23T01:33:41.316Z,27.17
2022-12-23T01:36:11.580Z,25.60
2022-12-23T01:38:40.261Z,32.93
2022-12-23T01:41:08.753Z,25.80
2022-12-23T01:43:48.227Z,26.37
2022-12-23T01:46:18.086Z,28.03
2022-12-23T01:48:51.901Z,31.53
2022-12-23T01:51:25.485Z,27.80
2022-12-23T01:54:01.220Z,28.83
2022-12-23T01:56:34.360Z,29.27
2022-12-23T01:59:09.397Z,29.73
2022-12-23T02:01:56.980Z,30.37
2022-12-23T02:04:27.008Z,31.17
2022-12-23T02:07:12.533Z,33.97
2022-12-23T02:09:41.898Z,28.27
2022-12-23T02:12:41.584Z,30.70
2022-12-23T02:15:53.003Z,35.07
2022-12-23T02:19:09.586Z,27.47
2022-12-23T02:22:02.555Z,27.63
2022-12-23T02:25:28.412Z,28.33
2022-12-23T02:28:18.602Z,26.73
2022-12-23T02:30:56.321Z,29.80
2022-12-23T02:33:50.184Z,23.97
2022-12-23T02:36:39.513Z,27.73
2022-12-23T02:39:16.313Z,24.87
2022-12-23T02:41:55.681Z,25.33
2022-12-23T02:44:31.342Z,25.70
2022-12-23T02:47:06.661Z,28.07
2022-12-23T02:49:39.845Z,25.57
2022-12-23T02:52:15.464Z,25.80
2022-12-23T02:54:47.305Z,30.03
2022-12-23T02:57:19.426Z,29.53
2022-12-23T02:59:52.351Z,26.83
2022-12-23T03:02:22.596Z,26.20
2022-12-23T03:04:51.075Z,30.13
2022-12-23T03:07:25.561Z,29.73
2022-12-23T03:10:04.867Z,28.77
2022-12-23T03:12:52.453Z,30.73
2022-12-23T03:15:33.396Z,29.80
2022-12-23T03:18:12.831Z,30.53
2022-12-23T03:20:50.977Z,27.80
2022-12-23T03:23:27.575Z,27.17
2022-12-23T03:26:03.747Z,26.83
2022-12-23T03:28:41.120Z,23.63
2022-12-23T03:31:14.282Z,28.77
2022-12-23T03:33:49.340Z,26.13
2022-12-23T03:36:24.346Z,23.27
2022-12-23T03:38:56.085Z,23.20
2022-12-23T03:41:32.503Z,24.77
2022-12-23T03:44:06.638Z,24.57
2022-12-23T03:46:40.926Z,21.47
2022-12-23T03:49:15.680Z,22.43
2022-12-23T03:51:52.367Z,23.87
2022-12-23T03:54:28.668Z,20.90
2022-12-23T03:57:03.514Z,22.30
2022-12-23T03:59:35.859Z,21.33
2022-12-23T04:02:10.527Z,21.27
2022-12-23T04:04:58.770Z,23.30
2022-12-23T04:07:32.625Z,20.47
2022-12-23T04:10:01.883Z,19.07
2022-12-23T04:12:31.676Z,22.83
2022-12-23T04:15:00.376Z,19.67
2022-12-23T04:17:30.055Z,20.10
2022-12-23T04:19:59.884Z,23.13
2022-12-23T04:22:28.283Z,20.07
2022-12-23T04:24:56.764Z,23.57
2022-12-23T04:27:25.093Z,20.93
2022-12-23T04:29:53.508Z,21.47
2022-12-23T04:32:21.890Z,22.50
2022-12-23T04:34:50.251Z,22.23
2022-12-23T04:37:20.065Z,21.90
2022-12-23T04:39:48.449Z,20.20
2022-12-23T04:42:16.866Z,18.63
2022-12-23T04:44:45.286Z,22.33
2022-12-23T04:47:13.709Z,19.77
2022-12-23T04:49:42.195Z,21.60
2022-12-23T04:52:10.900Z,18.83
2022-12-23T04:54:45.918Z,18.23
2022-12-23T04:57:16.120Z,21.77
2022-12-23T04:59:44.619Z,18.47
2022-12-23T05:02:13.298Z,21.67
2022-12-23T05:04:42.258Z,19.20
2022-12-23T05:07:10.677Z,18.03
2022-12-23T05:09:40.429Z,21.37
2022-12-23T05:12:08.826Z,19.37
2022-12-23T05:14:37.205Z,18.30
2022-12-23T05:17:08.031Z,18.40
2022-12-23T05:19:36.598Z,18.37
2022-12-23T05:22:04.977Z,18.57
2022-12-23T05:24:33.390Z,18.70
2022-12-23T05:27:03.302Z,17.87
2022-12-23T05:29:31.729Z,18.87
2022-12-23T05:32:00.264Z,18.30
2022-12-23T05:34:28.783Z,18.13
2022-12-23T05:36:57.244Z,18.37
2022-12-23T05:39:25.655Z,17.63
2022-12-23T05:41:53.990Z,16.63
2022-12-23T05:44:23.840Z,17.83
2022-12-23T05:46:52.277Z,17.27
2022-12-23T05:49:20.874Z,18.93
2022-12-23T05:51:49.284Z,19.10
2022-12-23T05:54:17.829Z,16.57
2022-12-23T05:56:46.197Z,15.03
2022-12-23T05:59:14.686Z,18.93
2022-12-23T06:01:44.628Z,16.53
2022-12-23T06:04:13.210Z,18.27
2022-12-23T06:06:41.592Z,17.43
2022-12-23T06:09:11.448Z,19.03
2022-12-23T06:11:39.825Z,17.03
2022-12-23T06:14:08.404Z,18.03
2022-12-23T06:16:37.001Z,22.40
2022-12-23T06:19:07.038Z,20.77
2022-12-23T06:21:35.494Z,18.33
2022-12-23T06:24:04.892Z,21.03
2022-12-23T06:26:33.952Z,16.57
2022-12-23T06:29:02.582Z,19.63
2022-12-23T06:31:31.030Z,19.57
2022-12-23T06:33:59.443Z,21.53
2022-12-23T06:36:29.295Z,20.07
2022-12-23T06:38:57.623Z,21.73
2022-12-23T06:41:25.987Z,23.10
2022-12-23T06:43:54.764Z,23.33
2022-12-23T06:46:23.350Z,22.93
2022-12-23T06:48:51.938Z,22.70
2022-12-23T06:51:20.506Z,21.23
2022-12-23T06:53:50.309Z,19.60
2022-12-23T06:56:18.971Z,20.80
2022-12-23T06:58:47.510Z,20.37
2022-12-23T07:01:15.985Z,21.73
2022-12-23T07:03:44.463Z,21.97
2022-12-23T07:06:13.097Z,17.30
2022-12-23T07:08:41.501Z,19.90
2022-12-23T07:11:11.246Z,21.23
2022-12-23T07:13:39.884Z,19.43
2022-12-23T07:16:10.540Z,21.07
2022-12-23T07:18:39.004Z,19.10
2022-12-23T07:21:14.028Z,22.77
2022-12-23T07:23:48.575Z,20.97
2022-12-23T07:26:18.673Z,18.80
2022-12-23T07:28:48.490Z,17.23
2022-12-23T07:31:17.197Z,21.00
2022-12-23T07:33:45.845Z,17.73
2022-12-23T07:36:15.721Z,17.00
2022-12-23T07:38:44.371Z,18.67
2022-12-23T07:41:12.802Z,17.80
2022-12-23T07:43:42.665Z,17.43
2022-12-23T07:46:11.781Z,20.77
2022-12-23T07:48:41.974Z,17.20
2022-12-23T07:51:11.416Z,19.93
2022-12-23T07:53:39.863Z,17.90
2022-12-23T07:56:09.302Z,17.93
2022-12-23T07:58:37.874Z,18.80
2022-12-23T08:01:09.222Z,21.63
2022-12-23T08:03:38.821Z,19.50
2022-12-23T08:06:12.699Z,16.77
2022-12-23T08:08:42.983Z,16.37
2022-12-23T08:11:13.408Z,16.03
2022-12-23T08:13:44.821Z,21.43
2022-12-23T08:16:14.766Z,17.37
2022-12-23T08:18:43.751Z,20.37
2022-12-23T08:21:17.986Z,17.27
2022-12-23T08:23:47.222Z,19.67
2022-12-23T08:26:18.072Z,18.83
2022-12-23T08:28:47.338Z,18.27
2022-12-23T08:31:20.905Z,19.47
2022-12-23T08:33:52.599Z,17.80
2022-12-23T08:36:25.040Z,19.97
2022-12-23T08:38:56.098Z,19.17
2022-12-23T08:41:29.016Z,18.43
2022-12-23T08:43:58.308Z,17.33
2022-12-23T08:46:28.837Z,18.73
2022-12-23T08:48:57.405Z,17.23
2022-12-23T08:51:28.045Z,18.67
2022-12-23T08:54:00.999Z,19.60
2022-12-23T08:56:32.761Z,18.07
2022-12-23T08:59:01.928Z,20.00
2022-12-23T09:01:36.156Z,17.50
2022-12-23T09:04:05.928Z,16.70
2022-12-23T09:06:37.553Z,16.90
2022-12-23T09:09:06.988Z,17.10
2022-12-23T09:11:36.176Z,17.03
2022-12-23T09:14:05.864Z,17.63
2022-12-23T09:16:35.798Z,20.27
2022-12-23T09:19:04.933Z,19.20
2022-12-23T09:21:33.566Z,19.33
2022-12-23T09:24:02.118Z,17.93
2022-12-23T09:26:32.695Z,17.90
2022-12-23T09:29:01.492Z,19.70
2022-12-23T09:31:36.163Z,22.10
2022-12-23T09:34:07.608Z,20.10
2022-12-23T09:36:36.080Z,20.53
2022-12-23T09:39:04.873Z,20.67
2022-12-23T09:41:54.682Z,21.57
2022-12-23T09:44:41.728Z,21.70
2022-12-23T09:47:15.664Z,22.93
2022-12-23T09:49:49.894Z,20.83
2022-12-23T09:52:26.688Z,21.03
2022-12-23T09:54:56.671Z,20.90
2022-12-23T09:57:36.523Z,21.53
2022-12-23T10:00:12.641Z,20.40
2022-12-23T10:02:57.091Z,21.63
2022-12-23T10:05:36.983Z,25.17
2022-12-23T10:08:13.830Z,20.17
2022-12-23T10:10:48.513Z,20.93
2022-12-23T10:13:26.927Z,23.77
2022-12-23T10:15:59.943Z,24.10
2022-12-23T10:18:42.516Z,23.73
2022-12-23T10:21:19.339Z,23.03
2022-12-23T10:23:53.416Z,19.23
2022-12-23T10:26:32.806Z,20.07
2022-12-23T10:29:18.363Z,21.60
2022-12-23T10:32:01.603Z,23.67
2022-12-23T10:34:44.825Z,22.60
2022-12-23T10:37:26.773Z,22.13
2022-12-23T10:40:15.705Z,29.33
2022-12-23T10:42:56.451Z,18.87
2022-12-23T10:45:42.265Z,24.73
2022-12-23T10:48:28.992Z,18.60
2022-12-23T10:51:02.550Z,21.17
2022-12-23T10:53:38.657Z,21.53
2022-12-23T10:56:08.543Z,20.63
2022-12-23T10:58:43.413Z,23.13
2022-12-23T11:01:24.038Z,19.73
2022-12-23T11:04:02.928Z,23.87
2022-12-23T11:06:37.525Z,21.37
2022-12-23T11:09:13.624Z,21.90
2022-12-23T11:11:59.443Z,22.80
2022-12-23T11:14:34.823Z,21.23
2022-12-23T11:17:03.494Z,23.53
2022-12-23T11:19:32.334Z,24.33
2022-12-23T11:22:02.464Z,21.63
2022-12-23T11:24:39.667Z,23.07
2022-12-23T11:27:17.176Z,22.93
2022-12-23T11:29:49.317Z,23.97
2022-12-23T11:32:21.723Z,23.03
2022-12-23T11:34:51.245Z,22.33
2022-12-23T11:37:33.414Z,23.00
2022-12-23T11:40:04.947Z,24.23
2022-12-23T11:42:35.866Z,24.20
2022-12-23T11:45:09.914Z,21.63
2022-12-23T11:47:41.078Z,25.57
2022-12-23T11:50:32.450Z,23.23
2022-12-23T11:53:15.330Z,25.30
2022-12-23T11:56:01.521Z,25.43
2022-12-23T11:58:32.064Z,21.73
2022-12-23T12:01:08.091Z,22.90
2022-12-23T12:03:47.330Z,24.63
2022-12-23T12:06:17.682Z,22.63
2022-12-23T12:08:52.233Z,23.57
2022-12-23T12:11:27.748Z,26.17
2022-12-23T12:14:00.791Z,22.03
2022-12-23T12:16:51.853Z,27.10
2022-12-23T12:19:26.813Z,23.30
2022-12-23T12:22:00.553Z,27.00
2022-12-23T12:24:34.416Z,26.30
2022-12-23T12:27:08.680Z,26.77
2022-12-23T12:29:42.915Z,25.30
2022-12-23T12:32:22.421Z,26.43
2022-12-23T12:34:58.196Z,22.50
2022-12-23T12:37:37.093Z,23.13
2022-12-23T12:40:19.553Z,23.77
2022-12-23T12:42:58.026Z,24.73
2022-12-23T12:45:34.914Z,23.73
2022-12-23T12:48:32.870Z,24.27
2022-12-23T12:51:12.356Z,22.90
2022-12-23T12:54:06.008Z,23.23
2022-12-23T12:56:42.639Z,25.33
2022-12-23T12:59:18.546Z,25.23
2022-12-23T13:02:23.928Z,22.87
2022-12-23T13:05:37.064Z,24.13
2022-12-23T13:08:24.708Z,23.03
2022-12-23T13:10:58.434Z,26.37
2022-12-23T13:13:40.415Z,27.20
2022-12-23T13:16:24.581Z,27.47
2022-12-23T13:18:59.558Z,27.00
2022-12-23T13:21:38.515Z,28.50
2022-12-23T13:24:22.633Z,26.83
2022-12-23T13:27:05.952Z,23.53
2022-12-23T13:30:04.791Z,24.93
2022-12-23T13:33:08.065Z,25.80
2022-12-23T13:36:05.037Z,24.63
2022-12-23T13:39:09.251Z,23.30
2022-12-23T13:41:42.242Z,25.87
2022-12-23T13:44:13.659Z,27.57
2022-12-23T13:46:53.429Z,20.97
2022-12-23T13:49:39.424Z,25.30
2022-12-23T13:52:13.164Z,23.10
2022-12-23T13:54:56.030Z,25.80
2022-12-23T13:57:44.678Z,27.23
2022-12-23T14:00:28.614Z,23.77
2022-12-23T14:03:20.256Z,24.83
2022-12-23T14:05:51.566Z,24.53
2022-12-23T14:08:33.834Z,21.37
2022-12-23T14:11:12.111Z,24.23
2022-12-23T14:13:44.801Z,24.83
2022-12-23T14:16:46.697Z,23.10
2022-12-23T14:19:37.114Z,23.57
2022-12-23T14:22:36.451Z,24.20
2022-12-23T14:25:56.369Z,26.30
2022-12-23T14:28:48.960Z,21.90
2022-12-23T14:31:39.871Z,24.67
2022-12-23T14:34:31.454Z,23.10
2022-12-23T14:37:37.043Z,23.77
2022-12-23T14:40:56.755Z,22.50
2022-12-23T14:43:32.560Z,22.10
2022-12-23T14:46:04.893Z,24.07
2022-12-23T14:49:38.763Z,22.63
2022-12-23T14:53:04.329Z,24.30
2022-12-23T14:55:53.595Z,25.17
2022-12-23T14:59:09.733Z,22.97
2022-12-23T15:01:41.968Z,21.63
2022-12-23T15:04:19.530Z,22.73
2022-12-23T15:06:53.164Z,22.93
2022-12-23T15:09:31.505Z,25.47
2022-12-23T15:12:06.122Z,28.03
2022-12-23T15:14:40.848Z,23.03
2022-12-23T15:17:27.034Z,24.40
2022-12-23T15:20:05.503Z,23.07
2022-12-23T15:22:34.515Z,22.57
2022-12-23T15:25:04.793Z,23.13
2022-12-23T15:27:37.924Z,20.07
2022-12-23T15:30:11.758Z,24.10
2022-12-23T15:32:42.335Z,20.37
2022-12-23T15:35:18.789Z,22.00
2022-12-23T15:37:50.600Z,20.67
2022-12-23T15:40:29.957Z,19.93
2022-12-23T15:42:59.135Z,18.77
2022-12-23T15:45:39.281Z,20.33
2022-12-23T15:48:25.240Z,20.00
2022-12-23T15:50:59.499Z,20.00
2022-12-23T15:53:33.967Z,21.97
2022-12-23T15:56:10.550Z,18.73
2022-12-23T15:58:43.435Z,20.63
2022-12-23T16:01:17.231Z,18.40
2022-12-23T16:03:53.242Z,19.00
2022-12-23T16:06:25.327Z,18.40
2022-12-23T16:09:03.919Z,17.93
2022-12-23T16:11:54.025Z,20.80
2022-12-23T16:14:37.685Z,19.43
2022-12-23T16:17:22.473Z,18.37
2022-12-23T16:19:53.645Z,18.53
2022-12-23T16:22:30.198Z,19.67
2022-12-23T16:25:17.225Z,19.57
2022-12-23T16:27:51.218Z,18.50
2022-12-23T16:30:22.790Z,19.40
2022-12-23T16:32:55.282Z,20.53
2022-12-23T16:35:36.292Z,20.20
2022-12-23T16:38:16.546Z,19.97
2022-12-23T16:40:47.405Z,21.27
2022-12-23T16:43:18.142Z,22.40
2022-12-23T16:45:50.768Z,21.70
2022-12-23T16:48:27.272Z,21.20
2022-12-23T16:50:56.272Z,21.77
2022-12-23T16:53:24.671Z,20.97
2022-12-23T16:55:58.504Z,20.40
2022-12-23T16:58:30.527Z,21.47
2022-12-23T17:00:59.193Z,20.37
2022-12-23T17:03:27.635Z,19.83
2022-12-23T17:05:57.449Z,19.80
2022-12-23T17:08:25.860Z,20.17
2022-12-23T17:10:54.373Z,19.97
2022-12-23T17:13:22.762Z,21.77
2022-12-23T17:15:52.785Z,20.83
2022-12-23T17:18:21.279Z,19.73
2022-12-23T17:20:50.936Z,21.40
2022-12-23T17:23:28.280Z,21.50
2022-12-23T17:25:57.133Z,20.03
2022-12-23T17:28:29.397Z,23.37
2022-12-23T17:31:00.253Z,21.47
2022-12-23T17:33:31.426Z,23.13
2022-12-23T17:35:59.976Z,23.53
2022-12-23T17:38:29.167Z,22.77
2022-12-23T17:40:59.455Z,21.63
2022-12-23T17:43:28.497Z,20.73
2022-12-23T17:45:58.629Z,21.37
2022-12-23T17:48:31.728Z,21.80
2022-12-23T17:51:00.659Z,21.20
2022-12-23T17:53:29.022Z,22.47
2022-12-23T17:55:57.551Z,19.03
2022-12-23T17:58:25.926Z,20.67
2022-12-23T18:00:54.485Z,19.60
2022-12-23T18:03:25.195Z,21.03
2022-12-23T18:06:01.262Z,19.93
2022-12-23T18:08:30.456Z,20.50
2022-12-23T18:11:00.587Z,23.37
2022-12-23T18:13:29.090Z,21.07
2022-12-23T18:15:57.769Z,18.33
2022-12-23T18:18:36.817Z,20.87
2022-12-23T18:21:12.002Z,17.57
2022-12-23T18:23:40.417Z,16.97
2022-12-23T18:26:11.658Z,17.33
2022-12-23T18:28:40.257Z,14.33
2022-12-23T18:31:15.241Z,17.83
2022-12-23T18:33:45.312Z,17.10
2022-12-23T18:36:24.431Z,16.13
2022-12-23T18:38:54.167Z,16.17
2022-12-23T18:41:23.541Z,16.63
2022-12-23T18:43:52.808Z,21.73
2022-12-23T18:46:21.773Z,16.23
2022-12-23T18:48:51.747Z,16.20
2022-12-23T18:51:22.805Z,18.23
2022-12-23T18:53:51.425Z,18.83
2022-12-23T18:56:21.432Z,17.33
2022-12-23T18:58:51.294Z,19.10
2022-12-23T19:01:20.440Z,20.60
2022-12-23T19:03:50.490Z,19.00
2022-12-23T19:06:18.898Z,16.93
2022-12-23T19:08:47.417Z,18.80
2022-12-23T19:11:18.539Z,17.73
2022-12-23T19:13:47.224Z,23.23
2022-12-23T19:16:18.358Z,19.87
2022-12-23T19:18:48.560Z,19.17
2022-12-23T19:21:19.851Z,19.50
2022-12-23T19:23:48.251Z,21.50
2022-12-23T19:26:17.477Z,21.70
2022-12-23T19:28:55.632Z,17.73
2022-12-23T19:31:25.479Z,19.20
2022-12-23T19:34:00.722Z,22.27
2022-12-23T19:36:40.302Z,21.00
2022-12-23T19:39:12.517Z,18.53
2022-12-23T19:41:41.380Z,17.53
2022-12-23T19:44:14.853Z,17.60
2022-12-23T19:46:52.372Z,14.83
2022-12-23T19:49:21.227Z,17.30
2022-12-23T19:51:51.874Z,18.40
2022-12-23T19:54:21.813Z,17.80
2022-12-23T19:56:53.132Z,16.67
2022-12-23T19:59:22.943Z,20.07
2022-12-23T20:01:54.595Z,17.17
2022-12-23T20:04:25.276Z,16.50
2022-12-23T20:06:55.575Z,19.93
2022-12-23T20:09:32.661Z,18.07
2022-12-23T20:12:08.306Z,19.73
2022-12-23T20:14:37.437Z,17.50
2022-12-23T20:17:06.532Z,19.03
2022-12-23T20:19:45.599Z,18.13
2022-12-23T20:22:16.493Z,18.27
2022-12-23T20:24:45.620Z,17.90
2022-12-23T20:27:19.124Z,18.40
2022-12-23T20:29:51.878Z,24.50
2022-12-23T20:32:20.669Z,20.47
2022-12-23T20:34:50.873Z,20.57
2022-12-23T20:37:21.113Z,19.97
2022-12-23T20:39:54.556Z,22.23
2022-12-23T20:42:23.570Z,21.97
2022-12-23T20:44:52.657Z,21.57
2022-12-23T20:47:21.512Z,21.73
2022-12-23T20:50:02.688Z,23.70
2022-12-23T20:52:33.568Z,23.93
2022-12-23T20:55:04.414Z,21.37
2022-12-23T20:57:36.501Z,22.90
2022-12-23T21:00:06.504Z,23.30
2022-12-23T21:02:35.118Z,23.00
2022-12-23T21:05:07.005Z,24.23
2022-12-23T21:07:39.892Z,27.87
2022-12-23T21:10:18.174Z,24.17
2022-12-23T21:12:48.748Z,24.60
2022-12-23T21:15:19.871Z,28.03
2022-12-23T21:17:48.591Z,26.93
2022-12-23T21:20:19.312Z,28.10
2022-12-23T21:22:51.399Z,27.87
2022-12-23T21:25:19.845Z,29.90
2022-12-23T21:27:49.254Z,26.77
2022-12-23T21:30:19.268Z,29.03
2022-12-23T21:32:50.064Z,29.67
2022-12-23T21:35:19.110Z,28.93
2022-12-23T21:37:49.264Z,30.67
2022-12-23T21:40:18.260Z,29.60
2022-12-23T21:42:47.137Z,29.63
2022-12-23T21:45:18.148Z,29.67
2022-12-23T21:47:49.242Z,30.83
2022-12-23T21:50:17.924Z,32.90
2022-12-23T21:52:46.579Z,31.83
2022-12-23T21:55:18.313Z,31.30
2022-12-23T21:57:46.925Z,30.83
2022-12-23T22:00:16.467Z,28.53
2022-12-23T22:02:46.313Z,30.33
2022-12-23T22:05:17.925Z,29.23
2022-12-23T22:07:46.547Z,27.47
2022-12-23T22:10:16.620Z,32.97
2022-12-23T22:12:46.126Z,31.10
2022-12-23T22:15:14.801Z,29.23
2022-12-23T22:17:44.214Z,27.10
2022-12-23T22:20:14.409Z,32.50
2022-12-23T22:22:43.483Z,28.30
2022-12-23T22:25:12.183Z,29.63
2022-12-23T22:27:42.524Z,29.10
2022-12-23T22:30:12.034Z,27.63
2022-12-23T22:32:42.599Z,28.13
2022-12-23T22:35:11.501Z,28.33
2022-12-23T22:37:39.897Z,27.83
2022-12-23T22:40:10.343Z,33.10
2022-12-23T22:42:38.840Z,29.67
2022-12-23T22:45:13.332Z,28.27
2022-12-23T22:47:42.401Z,27.77
2022-12-23T22:50:11.684Z,28.73
2022-12-23T22:52:40.329Z,29.50
2022-12-23T22:55:10.155Z,31.67
2022-12-23T22:57:38.591Z,33.10
2022-12-23T23:00:12.525Z,34.93
2022-12-23T23:02:41.582Z,27.20
2022-12-23T23:05:13.022Z,33.07
2022-12-23T23:07:41.881Z,34.57
2022-12-23T23:10:11.822Z,32.17
2022-12-23T23:12:40.224Z,30.60
2022-12-23T23:15:12.266Z,33.37
2022-12-23T23:17:40.612Z,30.27
2022-12-23T23:20:11.000Z,32.80
2022-12-23T23:22:39.432Z,33.77
2022-12-23T23:25:09.031Z,34.67
2022-12-23T23:27:37.386Z,34.07
2022-12-23T23:30:06.916Z,31.57
2022-12-23T23:32:36.646Z,34.87
2022-12-23T23:35:10.694Z,35.90
2022-12-23T23:37:39.512Z,37.70
2022-12-23T23:40:09.963Z,35.43
2022-12-23T23:42:38.371Z,35.27
2022-12-23T23:45:08.839Z,34.97
2022-12-23T23:47:38.571Z,32.60
2022-12-23T23:50:09.506Z,34.27
2022-12-23T23:52:37.953Z,35.00
2022-12-23T23:55:07.854Z,37.07
2022-12-23T23:57:36.240Z,35.80
